TimeEDT,TemperatureF,Dew PointF,Humidity,Sea Level PressureIn,VisibilityMPH,Wind Direction,Wind SpeedMPH,Gust SpeedMPH,PrecipitationIn,Events,Conditions,WindDirDegrees,DateUTC
12:15 AM,75.2,64.4,69,30.09,10.0,East,6.9,-,N/A,,Clear,100,2013-06-16 04:15:00
12:35 AM,73.4,64.4,73,30.09,10.0,East,6.9,-,N/A,,Clear,100,2013-06-16 04:35:00
12:53 AM,75.9,64.9,69,30.08,-9999.0,East,4.6,-,0.01,,Unknown,100,2013-06-16 04:53:00
12:55 AM,73.4,64.4,73,30.09,10.0,East,4.6,-,N/A,,Clear,90,2013-06-16 04:55:00
1:15 AM,73.4,64.4,73,30.09,10.0,East,6.9,-,N/A,,Clear,100,2013-06-16 05:15:00
1:35 AM,73.4,64.4,73,30.09,10.0,ESE,6.9,-,N/A,,Clear,110,2013-06-16 05:35:00
1:53 AM,75.0,64.9,71,30.07,-9999.0,ESE,6.9,-,N/A,,Unknown,110,2013-06-16 05:53:00
1:55 AM,73.4,64.4,73,30.09,10.0,East,9.2,-,N/A,,Clear,100,2013-06-16 05:55:00
2:15 AM,73.4,64.4,73,30.09,10.0,East,5.8,-,N/A,,Clear,90,2013-06-16 06:15:00
2:35 AM,73.4,64.4,73,30.09,10.0,ENE,3.5,-,N/A,,Clear,60,2013-06-16 06:35:00
2:53 AM,73.0,64.9,76,30.07,-9999.0,ENE,4.6,-,N/A,,Unknown,60,2013-06-16 06:53:00
2:55 AM,71.6,64.4,78,30.09,10.0,ENE,3.5,-,N/A,,Clear,60,2013-06-16 06:55:00
3:15 AM,71.6,64.4,78,30.08,10.0,ENE,3.5,-,N/A,,Clear,70,2013-06-16 07:15:00
3:35 AM,71.6,64.4,78,30.08,10.0,ENE,3.5,-,N/A,,Mostly Cloudy,70,2013-06-16 07:35:00
3:53 AM,73.9,66.0,76,30.07,-9999.0,East,3.5,-,N/A,,Unknown,90,2013-06-16 07:53:00
3:55 AM,71.6,64.4,78,30.08,5.0,East,3.5,-,N/A,,Haze,90,2013-06-16 07:55:00
4:15 AM,71.6,64.4,78,30.08,10.0,East,6.9,-,N/A,,Mostly Cloudy,100,2013-06-16 08:15:00
4:35 AM,71.6,64.4,78,30.09,10.0,East,4.6,-,N/A,,Scattered Clouds,100,2013-06-16 08:35:00
4:53 AM,73.0,66.0,79,30.07,-9999.0,ESE,6.9,-,N/A,,Unknown,110,2013-06-16 08:53:00
4:55 AM,71.6,64.4,78,30.09,10.0,East,6.9,-,N/A,,Clear,100,2013-06-16 08:55:00
5:15 AM,71.6,64.4,78,30.08,10.0,East,6.9,-,N/A,,Clear,100,2013-06-16 09:15:00
5:35 AM,69.8,66.2,88,30.09,10.0,East,5.8,-,N/A,,Clear,100,2013-06-16 09:35:00
5:53 AM,72.0,66.0,81,30.07,-9999.0,East,4.6,-,N/A,,Unknown,100,2013-06-16 09:53:00
5:55 AM,69.8,66.2,88,30.09,10.0,East,3.5,-,N/A,,Clear,100,2013-06-16 09:55:00
6:15 AM,69.8,66.2,88,30.09,10.0,East,5.8,-,N/A,,Clear,90,2013-06-16 10:15:00
6:35 AM,69.8,66.2,88,30.10,10.0,ESE,5.8,-,N/A,,Scattered Clouds,110,2013-06-16 10:35:00
6:53 AM,72.0,66.9,84,30.08,-9999.0,ESE,4.6,-,0.02,,Unknown,120,2013-06-16 10:53:00
6:55 AM,69.8,66.2,88,30.10,10.0,ESE,3.5,-,N/A,,Scattered Clouds,120,2013-06-16 10:55:00
7:15 AM,69.8,66.2,88,30.09,10.0,ESE,6.9,-,N/A,,Clear,120,2013-06-16 11:15:00
7:35 AM,71.6,68.0,88,30.10,10.0,ESE,6.9,-,N/A,,Clear,110,2013-06-16 11:35:00
7:53 AM,75.0,66.9,76,30.09,-9999.0,ESE,4.6,-,N/A,,Unknown,110,2013-06-16 11:53:00
7:55 AM,71.6,68.0,88,30.10,10.0,ESE,5.8,-,N/A,,Clear,110,2013-06-16 11:55:00
8:15 AM,73.4,68.0,83,30.10,10.0,ESE,5.8,-,N/A,,Clear,120,2013-06-16 12:15:00
8:35 AM,75.2,68.0,78,30.11,10.0,ESE,6.9,-,N/A,,Clear,120,2013-06-16 12:35:00
8:53 AM,80.1,69.1,69,30.10,-9999.0,ESE,9.2,-,N/A,,Unknown,120,2013-06-16 12:53:00
8:55 AM,77.0,69.8,78,30.11,10.0,SE,8.1,-,N/A,,Clear,130,2013-06-16 12:55:00
9:15 AM,78.8,69.8,74,30.11,10.0,SE,8.1,-,N/A,,Clear,130,2013-06-16 13:15:00
9:35 AM,78.8,69.8,74,30.12,10.0,SE,8.1,-,N/A,,Clear,140,2013-06-16 13:35:00
9:53 AM,82.9,72.0,69,30.10,-9999.0,Variable,5.8,-,N/A,,Unknown,0,2013-06-16 13:53:00
9:55 AM,80.6,71.6,74,30.12,10.0,SSE,4.6,-,N/A,,Clear,150,2013-06-16 13:55:00
10:15 AM,80.6,71.6,74,30.12,10.0,ESE,5.8,-,N/A,,Scattered Clouds,120,2013-06-16 14:15:00
10:35 AM,80.6,71.6,74,30.12,10.0,SSE,3.5,-,N/A,Thunderstorm,Overcast,160,2013-06-16 14:35:00
10:53 AM,84.9,73.0,67,30.10,-9999.0,Variable,3.5,-,N/A,,Unknown,0,2013-06-16 14:53:00
10:55 AM,82.4,71.6,70,30.12,10.0,SE,3.5,-,N/A,,Mostly Cloudy,130,2013-06-16 14:55:00
11:15 AM,82.4,71.6,70,30.12,10.0,SE,4.6,-,N/A,,Overcast,130,2013-06-16 15:15:00
11:35 AM,82.4,71.6,70,30.11,10.0,Calm,Calm,-,N/A,,Mostly Cloudy,0,2013-06-16 15:35:00
11:53 AM,87.1,73.0,63,30.09,-9999.0,Calm,Calm,-,N/A,,Unknown,0,2013-06-16 15:53:00
11:55 AM,84.2,71.6,66,30.11,10.0,Calm,Calm,-,N/A,,Overcast,0,2013-06-16 15:55:00
12:15 PM,84.2,71.6,66,30.10,10.0,Calm,Calm,-,N/A,,Overcast,0,2013-06-16 16:15:00
12:35 PM,82.4,71.6,70,30.11,10.0,Calm,Calm,-,N/A,,Overcast,0,2013-06-16 16:35:00
12:53 PM,84.9,73.0,67,30.09,-9999.0,WSW,3.5,-,N/A,,Unknown,250,2013-06-16 16:53:00
12:55 PM,82.4,71.6,70,30.10,10.0,SW,4.6,-,N/A,,Overcast,230,2013-06-16 16:55:00
1:15 PM,82.4,71.6,70,30.10,10.0,Calm,Calm,-,N/A,,Overcast,0,2013-06-16 17:15:00
1:35 PM,84.2,71.6,66,30.10,10.0,Calm,Calm,-,N/A,,Overcast,0,2013-06-16 17:35:00
1:53 PM,86.0,73.0,65,30.08,-9999.0,Calm,Calm,-,N/A,,Unknown,0,2013-06-16 17:53:00
1:55 PM,82.4,71.6,70,30.09,10.0,Calm,Calm,-,N/A,,Overcast,0,2013-06-16 17:55:00
2:15 PM,84.2,71.6,66,30.09,10.0,SSE,3.5,-,N/A,,Overcast,160,2013-06-16 18:15:00
2:35 PM,82.4,73.4,74,30.08,10.0,SW,5.8,-,N/A,,Overcast,220,2013-06-16 18:35:00
2:53 PM,84.9,75.0,72,30.06,-9999.0,SSW,8.1,-,N/A,,Unknown,210,2013-06-16 18:53:00
2:55 PM,82.4,73.4,74,30.08,10.0,SSW,5.8,-,N/A,,Overcast,210,2013-06-16 18:55:00
3:15 PM,82.4,73.4,74,30.07,10.0,SSW,5.8,-,N/A,,Overcast,200,2013-06-16 19:15:00
3:35 PM,82.4,73.4,74,30.07,10.0,SSW,5.8,-,N/A,,Overcast,200,2013-06-16 19:35:00
3:53 PM,84.9,75.0,72,30.04,-9999.0,SSW,3.5,-,N/A,,Unknown,210,2013-06-16 19:53:00
3:55 PM,82.4,73.4,74,30.06,10.0,SSW,3.5,-,N/A,,Overcast,210,2013-06-16 19:55:00
4:15 PM,82.4,73.4,74,30.05,10.0,SSW,4.6,-,N/A,,Overcast,200,2013-06-16 20:15:00
4:35 PM,82.4,73.4,74,30.05,10.0,SSW,8.1,-,N/A,,Overcast,210,2013-06-16 20:35:00
4:53 PM,84.9,75.9,74,30.03,-9999.0,WSW,5.8,-,N/A,,Unknown,240,2013-06-16 20:53:00
4:55 PM,82.4,73.4,74,30.05,10.0,WSW,5.8,-,N/A,,Overcast,240,2013-06-16 20:55:00
5:15 PM,82.4,73.4,74,30.04,10.0,West,4.6,-,N/A,,Overcast,270,2013-06-16 21:15:00
5:35 PM,84.2,73.4,70,30.04,10.0,Calm,Calm,-,N/A,,Overcast,0,2013-06-16 21:35:00
5:53 PM,88.0,75.0,65,30.02,-9999.0,Variable,3.5,-,N/A,,Unknown,0,2013-06-16 21:53:00
5:55 PM,86.0,73.4,66,30.03,10.0,South,3.5,-,N/A,,Mostly Cloudy,170,2013-06-16 21:55:00
6:15 PM,86.0,73.4,66,30.03,10.0,WSW,4.6,-,N/A,,Scattered Clouds,240,2013-06-16 22:15:00
6:35 PM,86.0,73.4,66,30.03,10.0,SSW,4.6,-,N/A,,Scattered Clouds,210,2013-06-16 22:35:00
6:53 PM,87.1,73.9,65,30.02,-9999.0,South,4.6,-,N/A,,Unknown,170,2013-06-16 22:53:00
6:55 PM,86.0,73.4,66,30.04,10.0,South,4.6,-,N/A,,Scattered Clouds,170,2013-06-16 22:55:00
7:15 PM,84.2,73.4,70,30.04,10.0,SW,3.5,-,N/A,,Scattered Clouds,230,2013-06-16 23:15:00
7:35 PM,84.2,73.4,70,30.05,10.0,South,4.6,-,N/A,,Overcast,190,2013-06-16 23:35:00
7:53 PM,84.0,73.9,72,30.04,-9999.0,SSW,4.6,-,N/A,,Unknown,200,2013-06-16 23:53:00
7:55 PM,82.4,73.4,74,30.05,10.0,SSW,4.6,-,N/A,,Mostly Cloudy,200,2013-06-16 23:55:00
8:15 PM,80.6,73.4,79,30.05,10.0,South,3.5,-,N/A,,Scattered Clouds,190,2013-06-17 00:15:00
8:35 PM,80.6,73.4,79,30.05,10.0,SW,3.5,-,N/A,,Scattered Clouds,230,2013-06-17 00:35:00
8:53 PM,80.1,73.0,79,30.04,-9999.0,SW,4.6,-,N/A,,Unknown,220,2013-06-17 00:53:00
8:55 PM,78.8,73.4,83,30.05,10.0,SW,3.5,-,N/A,,Clear,220,2013-06-17 00:55:00
9:15 PM,78.8,71.6,78,30.05,10.0,SSW,3.5,-,N/A,,Clear,200,2013-06-17 01:15:00
9:35 PM,78.8,71.6,78,30.05,10.0,South,5.8,-,N/A,,Clear,170,2013-06-17 01:35:00
9:53 PM,79.0,73.0,82,30.04,-9999.0,South,3.5,-,N/A,,Unknown,180,2013-06-17 01:53:00
9:55 PM,77.0,73.4,89,30.05,10.0,South,3.5,-,N/A,,Clear,180,2013-06-17 01:55:00
10:15 PM,77.0,71.6,83,30.07,10.0,Calm,Calm,-,N/A,,Clear,0,2013-06-17 02:15:00
10:35 PM,77.0,71.6,83,30.08,10.0,ESE,3.5,-,N/A,,Clear,110,2013-06-17 02:35:00
10:53 PM,78.1,73.0,84,30.07,-9999.0,ESE,3.5,-,N/A,,Unknown,110,2013-06-17 02:53:00
10:55 PM,77.0,71.6,83,30.09,10.0,ESE,3.5,-,N/A,,Clear,110,2013-06-17 02:55:00
11:15 PM,77.0,71.6,83,30.10,10.0,ESE,4.6,-,N/A,,Mostly Cloudy,120,2013-06-17 03:15:00
11:35 PM,75.2,71.6,89,30.09,10.0,SE,6.9,-,N/A,,Scattered Clouds,130,2013-06-17 03:35:00
11:53 PM,78.1,72.0,81,30.08,-9999.0,SE,8.1,-,0.01,,Unknown,130,2013-06-17 03:53:00
11:55 PM,75.2,71.6,89,30.09,10.0,SE,6.9,-,N/A,,Clear,130,2013-06-17 03:55:00